sensor_id;sensor_type;location;lat;lon;timestamp;pressure;altitude;pressure_sealevel;temperature;humidity
78839;BME280;68405;47.190;27.558;2023-05-19T00:01:28;100168.84;;;13.67;67.25
78839;BME280;68405;47.190;27.558;2023-05-19T00:04:01;100156.48;;;13.65;66.67
78839;BME280;68405;47.190;27.558;2023-05-19T00:06:35;100152.98;;;13.62;66.55
78839;BME280;68405;47.190;27.558;2023-05-19T00:09:08;100145.74;;;13.60;66.28
78839;BME280;68405;47.190;27.558;2023-05-19T00:11:41;100137.65;;;13.57;67.07
78839;BME280;68405;47.190;27.558;2023-05-19T00:14:13;100138.29;;;13.54;68.09
78839;BME280;68405;47.190;27.558;2023-05-19T00:16:46;100140.43;;;13.53;67.47
78839;BME280;68405;47.190;27.558;2023-05-19T00:19:17;100134.95;;;13.51;67.13
78839;BME280;68405;47.190;27.558;2023-05-19T00:21:49;100135.17;;;13.50;66.52
78839;BME280;68405;47.190;27.558;2023-05-19T00:24:21;100137.99;;;13.49;66.62
78839;BME280;68405;47.190;27.558;2023-05-19T00:26:52;100143.24;;;13.49;66.10
78839;BME280;68405;47.190;27.558;2023-05-19T00:29:24;100147.95;;;13.49;68.01
78839;BME280;68405;47.190;27.558;2023-05-19T00:31:56;100157.39;;;13.48;67.58
78839;BME280;68405;47.190;27.558;2023-05-19T00:34:28;100168.55;;;13.48;68.64
78839;BME280;68405;47.190;27.558;2023-05-19T00:36:59;100178.46;;;13.49;66.88
78839;BME280;68405;47.190;27.558;2023-05-19T00:39:31;100183.55;;;13.49;67.11
78839;BME280;68405;47.190;27.558;2023-05-19T00:42:04;100186.17;;;13.48;66.57
78839;BME280;68405;47.190;27.558;2023-05-19T00:44:39;100184.61;;;13.49;67.26
78839;BME280;68405;47.190;27.558;2023-05-19T00:47:11;100177.80;;;13.48;68.11
78839;BME280;68405;47.190;27.558;2023-05-19T00:49:42;100175.90;;;13.48;66.95
78839;BME280;68405;47.190;27.558;2023-05-19T00:52:15;100179.56;;;13.48;67.05
78839;BME280;68405;47.190;27.558;2023-05-19T00:54:46;100176.52;;;13.50;68.17
78839;BME280;68405;47.190;27.558;2023-05-19T00:57:19;100179.18;;;13.49;67.98
78839;BME280;68405;47.190;27.558;2023-05-19T00:59:51;100179.04;;;13.48;67.71
78839;BME280;68405;47.190;27.558;2023-05-19T01:02:23;100175.70;;;13.49;66.70
78839;BME280;68405;47.190;27.558;2023-05-19T01:04:57;100171.00;;;13.48;67.75
78839;BME280;68405;47.190;27.558;2023-05-19T01:07:28;100171.51;;;13.49;67.80
78839;BME280;68405;47.190;27.558;2023-05-19T01:10:00;100172.90;;;13.49;67.66
78839;BME280;68405;47.190;27.558;2023-05-19T01:12:32;100169.30;;;13.47;69.02
78839;BME280;68405;47.190;27.558;2023-05-19T01:15:05;100175.06;;;13.47;67.54
78839;BME280;68405;47.190;27.558;2023-05-19T01:17:44;100176.80;;;13.47;68.36
78839;BME280;68405;47.190;27.558;2023-05-19T01:20:21;100180.17;;;13.46;67.63
78839;BME280;68405;47.190;27.558;2023-05-19T01:23:17;100173.75;;;13.45;68.25
78839;BME280;68405;47.190;27.558;2023-05-19T01:26:15;100170.89;;;13.43;68.29
78839;BME280;68405;47.190;27.558;2023-05-19T01:29:24;100172.69;;;13.41;68.67
78839;BME280;68405;47.190;27.558;2023-05-19T01:32:00;100171.86;;;13.40;68.94
78839;BME280;68405;47.190;27.558;2023-05-19T01:34:35;100178.91;;;13.38;67.98
78839;BME280;68405;47.190;27.558;2023-05-19T01:37:10;100179.63;;;13.37;68.09
78839;BME280;68405;47.190;27.558;2023-05-19T01:39:44;100186.13;;;13.36;69.19
78839;BME280;68405;47.190;27.558;2023-05-19T01:42:17;100188.10;;;13.35;69.15
78839;BME280;68405;47.190;27.558;2023-05-19T01:44:49;100188.54;;;13.33;69.16
78839;BME280;68405;47.190;27.558;2023-05-19T01:47:23;100193.20;;;13.30;70.30
78839;BME280;68405;47.190;27.558;2023-05-19T01:49:55;100201.84;;;13.27;69.85
78839;BME280;68405;47.190;27.558;2023-05-19T01:52:26;100204.48;;;13.27;69.21
78839;BME280;68405;47.190;27.558;2023-05-19T01:54:58;100202.52;;;13.27;69.02
78839;BME280;68405;47.190;27.558;2023-05-19T01:57:35;100206.44;;;13.30;70.25
78839;BME280;68405;47.190;27.558;2023-05-19T02:00:20;100204.69;;;13.30;69.03
78839;BME280;68405;47.190;27.558;2023-05-19T02:03:19;100203.54;;;13.28;68.66
78839;BME280;68405;47.190;27.558;2023-05-19T02:06:01;100198.19;;;13.27;68.38
78839;BME280;68405;47.190;27.558;2023-05-19T02:08:41;100189.57;;;13.24;68.72
78839;BME280;68405;47.190;27.558;2023-05-19T02:11:13;100194.38;;;13.22;69.88
78839;BME280;68405;47.190;27.558;2023-05-19T02:13:49;100200.61;;;13.18;69.31
78839;BME280;68405;47.190;27.558;2023-05-19T02:16:22;100196.48;;;13.17;69.73
78839;BME280;68405;47.190;27.558;2023-05-19T02:18:56;100198.48;;;13.15;69.34
78839;BME280;68405;47.190;27.558;2023-05-19T02:21:28;100197.30;;;13.14;69.37
78839;BME280;68405;47.190;27.558;2023-05-19T02:24:00;100200.28;;;13.14;69.96
78839;BME280;68405;47.190;27.558;2023-05-19T02:26:32;100201.88;;;13.13;69.70
78839;BME280;68405;47.190;27.558;2023-05-19T02:29:03;100203.84;;;13.12;69.80
78839;BME280;68405;47.190;27.558;2023-05-19T02:31:35;100210.67;;;13.12;68.86
78839;BME280;68405;47.190;27.558;2023-05-19T02:34:07;100216.14;;;13.10;70.10
78839;BME280;68405;47.190;27.558;2023-05-19T02:36:40;100218.77;;;13.09;70.12
78839;BME280;68405;47.190;27.558;2023-05-19T02:39:12;100221.92;;;13.09;69.58
78839;BME280;68405;47.190;27.558;2023-05-19T02:41:44;100225.52;;;13.11;69.72
78839;BME280;68405;47.190;27.558;2023-05-19T02:44:16;100220.59;;;13.12;69.40
78839;BME280;68405;47.190;27.558;2023-05-19T02:46:47;100220.44;;;13.12;69.34
78839;BME280;68405;47.190;27.558;2023-05-19T02:49:19;100225.50;;;13.11;69.26
78839;BME280;68405;47.190;27.558;2023-05-19T02:51:50;100233.10;;;13.13;70.43
78839;BME280;68405;47.190;27.558;2023-05-19T02:54:22;100236.23;;;13.13;69.66
78839;BME280;68405;47.190;27.558;2023-05-19T02:56:54;100245.31;;;13.13;70.11
78839;BME280;68405;47.190;27.558;2023-05-19T02:59:26;100251.35;;;13.15;70.03
78839;BME280;68405;47.190;27.558;2023-05-19T03:02:03;100251.83;;;13.16;70.30
78839;BME280;68405;47.190;27.558;2023-05-19T03:04:35;100258.23;;;13.17;71.00
78839;BME280;68405;47.190;27.558;2023-05-19T03:07:11;100261.88;;;13.17;70.06
78839;BME280;68405;47.190;27.558;2023-05-19T03:09:44;100268.56;;;13.21;69.85
78839;BME280;68405;47.190;27.558;2023-05-19T03:12:16;100263.88;;;13.24;70.04
78839;BME280;68405;47.190;27.558;2023-05-19T03:14:48;100260.98;;;13.27;70.31
78839;BME280;68405;47.190;27.558;2023-05-19T03:17:20;100263.28;;;13.31;69.77
78839;BME280;68405;47.190;27.558;2023-05-19T03:19:51;100261.15;;;13.36;69.31
78839;BME280;68405;47.190;27.558;2023-05-19T03:22:23;100266.92;;;13.41;69.13
78839;BME280;68405;47.190;27.558;2023-05-19T03:24:55;100267.98;;;13.45;70.52
78839;BME280;68405;47.190;27.558;2023-05-19T03:27:27;100271.39;;;13.47;69.84
78839;BME280;68405;47.190;27.558;2023-05-19T03:29:59;100274.27;;;13.49;69.70
78839;BME280;68405;47.190;27.558;2023-05-19T03:32:30;100270.86;;;13.51;68.72
78839;BME280;68405;47.190;27.558;2023-05-19T03:35:03;100275.58;;;13.56;69.09
78839;BME280;68405;47.190;27.558;2023-05-19T03:37:34;100267.83;;;13.62;69.07
78839;BME280;68405;47.190;27.558;2023-05-19T03:40:08;100266.67;;;13.69;68.73
78839;BME280;68405;47.190;27.558;2023-05-19T03:42:40;100263.63;;;13.75;68.73
78839;BME280;68405;47.190;27.558;2023-05-19T03:45:12;100265.25;;;13.78;69.08
78839;BME280;68405;47.190;27.558;2023-05-19T03:47:43;100272.08;;;13.77;68.76
78839;BME280;68405;47.190;27.558;2023-05-19T03:50:16;100274.93;;;13.81;68.99
78839;BME280;68405;47.190;27.558;2023-05-19T03:52:48;100277.52;;;13.85;68.60
78839;BME280;68405;47.190;27.558;2023-05-19T03:55:20;100276.56;;;13.91;68.82
78839;BME280;68405;47.190;27.558;2023-05-19T03:57:52;100277.40;;;13.96;68.87
78839;BME280;68405;47.190;27.558;2023-05-19T04:00:23;100283.88;;;14.00;68.81
78839;BME280;68405;47.190;27.558;2023-05-19T04:02:55;100286.59;;;14.02;69.30
78839;BME280;68405;47.190;27.558;2023-05-19T04:05:27;100292.20;;;14.06;69.09
78839;BME280;68405;47.190;27.558;2023-05-19T04:07:58;100296.44;;;14.13;68.87
78839;BME280;68405;47.190;27.558;2023-05-19T04:10:30;100308.86;;;14.17;69.21
78839;BME280;68405;47.190;27.558;2023-05-19T04:13:02;100310.33;;;14.19;68.51
78839;BME280;68405;47.190;27.558;2023-05-19T04:15:34;100306.11;;;14.24;68.28
78839;BME280;68405;47.190;27.558;2023-05-19T04:18:07;100296.77;;;14.38;68.46
78839;BME280;68405;47.190;27.558;2023-05-19T04:20:39;100294.02;;;14.53;67.85
78839;BME280;68405;47.190;27.558;2023-05-19T04:23:11;100296.45;;;14.65;67.67
78839;BME280;68405;47.190;27.558;2023-05-19T04:25:43;100294.18;;;14.74;67.50
78839;BME280;68405;47.190;27.558;2023-05-19T04:28:17;100300.94;;;14.75;67.50
78839;BME280;68405;47.190;27.558;2023-05-19T04:30:50;100301.41;;;14.72;67.56
78839;BME280;68405;47.190;27.558;2023-05-19T04:33:21;100300.73;;;14.76;67.42
78839;BME280;68405;47.190;27.558;2023-05-19T04:35:53;100297.45;;;14.78;67.14
78839;BME280;68405;47.190;27.558;2023-05-19T04:38:26;100291.02;;;14.89;66.94
78839;BME280;68405;47.190;27.558;2023-05-19T04:40:59;100299.45;;;15.15;66.71
78839;BME280;68405;47.190;27.558;2023-05-19T04:43:31;100308.42;;;15.32;66.34
78839;BME280;68405;47.190;27.558;2023-05-19T04:46:03;100303.92;;;15.31;66.34
78839;BME280;68405;47.190;27.558;2023-05-19T04:48:36;100305.34;;;15.31;66.36
78839;BME280;68405;47.190;27.558;2023-05-19T04:51:08;100300.38;;;15.32;66.11
78839;BME280;68405;47.190;27.558;2023-05-19T04:53:44;100300.16;;;15.34;65.86
78839;BME280;68405;47.190;27.558;2023-05-19T04:56:15;100297.82;;;15.35;65.89
78839;BME280;68405;47.190;27.558;2023-05-19T04:58:48;100317.38;;;15.32;65.91
78839;BME280;68405;47.190;27.558;2023-05-19T05:01:20;100329.23;;;15.26;65.96
78839;BME280;68405;47.190;27.558;2023-05-19T05:03:56;100311.41;;;15.25;66.07
78839;BME280;68405;47.190;27.558;2023-05-19T05:06:28;100309.31;;;15.36;65.69
78839;BME280;68405;47.190;27.558;2023-05-19T05:09:01;100305.41;;;15.49;65.60
78839;BME280;68405;47.190;27.558;2023-05-19T05:11:35;100304.96;;;15.65;65.11
78839;BME280;68405;47.190;27.558;2023-05-19T05:14:08;100306.44;;;15.78;64.77
78839;BME280;68405;47.190;27.558;2023-05-19T05:16:40;100298.37;;;15.89;64.50
78839;BME280;68405;47.190;27.558;2023-05-19T05:19:13;100297.36;;;16.13;64.01
78839;BME280;68405;47.190;27.558;2023-05-19T05:21:46;100308.21;;;16.13;63.95
78839;BME280;68405;47.190;27.558;2023-05-19T05:24:19;100322.48;;;16.01;64.17
78839;BME280;68405;47.190;27.558;2023-05-19T05:26:52;100331.77;;;15.83;64.23
78839;BME280;68405;47.190;27.558;2023-05-19T05:29:23;100318.55;;;15.74;64.38
78839;BME280;68405;47.190;27.558;2023-05-19T05:31:55;100308.32;;;15.75;64.34
78839;BME280;68405;47.190;27.558;2023-05-19T05:34:27;100310.48;;;15.88;64.19
78839;BME280;68405;47.190;27.558;2023-05-19T05:36:59;100312.91;;;16.38;63.21
78839;BME280;68405;47.190;27.558;2023-05-19T05:39:30;100316.51;;;16.87;62.19
78839;BME280;68405;47.190;27.558;2023-05-19T05:42:02;100325.63;;;17.29;61.34
78839;BME280;68405;47.190;27.558;2023-05-19T05:44:34;100325.55;;;17.53;60.35
78839;BME280;68405;47.190;27.558;2023-05-19T05:47:08;100327.71;;;17.98;59.81
78839;BME280;68405;47.190;27.558;2023-05-19T05:49:42;100324.95;;;18.07;59.13
78839;BME280;68405;47.190;27.558;2023-05-19T05:52:19;100320.77;;;18.15;58.61
78839;BME280;68405;47.190;27.558;2023-05-19T05:54:53;100328.63;;;18.16;58.18
78839;BME280;68405;47.190;27.558;2023-05-19T05:57:25;100335.06;;;18.05;58.96
78839;BME280;68405;47.190;27.558;2023-05-19T06:00:00;100341.70;;;18.30;58.27
78839;BME280;68405;47.190;27.558;2023-05-19T06:02:35;100343.06;;;18.57;57.55
78839;BME280;68405;47.190;27.558;2023-05-19T06:05:08;100337.48;;;18.94;56.54
78839;BME280;68405;47.190;27.558;2023-05-19T06:07:41;100345.95;;;19.20;56.75
78839;BME280;68405;47.190;27.558;2023-05-19T06:10:13;100341.12;;;19.54;55.75
78839;BME280;68405;47.190;27.558;2023-05-19T06:12:45;100341.20;;;20.31;54.32
78839;BME280;68405;47.190;27.558;2023-05-19T06:15:17;100338.14;;;20.63;52.78
78839;BME280;68405;47.190;27.558;2023-05-19T06:17:49;100341.91;;;20.47;53.51
78839;BME280;68405;47.190;27.558;2023-05-19T06:20:21;100340.21;;;20.46;52.21
78839;BME280;68405;47.190;27.558;2023-05-19T06:22:53;100337.04;;;21.05;51.31
78839;BME280;68405;47.190;27.558;2023-05-19T06:25:25;100336.66;;;21.40;49.93
78839;BME280;68405;47.190;27.558;2023-05-19T06:27:57;100340.10;;;21.53;50.24
78839;BME280;68405;47.190;27.558;2023-05-19T06:30:29;100338.41;;;22.67;48.88
78839;BME280;68405;47.190;27.558;2023-05-19T06:33:01;100338.92;;;23.86;46.07
78839;BME280;68405;47.190;27.558;2023-05-19T06:35:33;100343.39;;;23.31;45.84
78839;BME280;68405;47.190;27.558;2023-05-19T06:38:05;100346.58;;;22.84;46.56
78839;BME280;68405;47.190;27.558;2023-05-19T06:40:37;100348.48;;;22.80;46.76
78839;BME280;68405;47.190;27.558;2023-05-19T06:43:09;100341.45;;;23.83;44.87
78839;BME280;68405;47.190;27.558;2023-05-19T06:45:40;100343.59;;;24.41;44.45
78839;BME280;68405;47.190;27.558;2023-05-19T06:48:12;100340.15;;;24.08;44.39
78839;BME280;68405;47.190;27.558;2023-05-19T06:50:44;100340.77;;;23.75;44.38
78839;BME280;68405;47.190;27.558;2023-05-19T06:53:18;100342.23;;;23.98;43.64
78839;BME280;68405;47.190;27.558;2023-05-19T06:55:48;100342.71;;;24.05;43.28
78839;BME280;68405;47.190;27.558;2023-05-19T06:58:20;100338.45;;;24.74;42.70
78839;BME280;68405;47.190;27.558;2023-05-19T07:00:52;100335.61;;;25.05;42.21
78839;BME280;68405;47.190;27.558;2023-05-19T07:03:24;100338.02;;;26.45;39.14
78839;BME280;68405;47.190;27.558;2023-05-19T07:05:56;100333.85;;;28.45;37.09
78839;BME280;68405;47.190;27.558;2023-05-19T07:08:28;100333.05;;;28.64;37.05
78839;BME280;68405;47.190;27.558;2023-05-19T07:10:59;100340.46;;;27.94;36.71
78839;BME280;68405;47.190;27.558;2023-05-19T07:13:32;100341.08;;;27.54;36.85
78839;BME280;68405;47.190;27.558;2023-05-19T07:16:04;100344.85;;;28.25;36.72
78839;BME280;68405;47.190;27.558;2023-05-19T07:18:36;100347.72;;;27.90;35.15
78839;BME280;68405;47.190;27.558;2023-05-19T07:21:08;100351.92;;;27.36;35.84
78839;BME280;68405;47.190;27.558;2023-05-19T07:23:40;100351.98;;;26.85;37.38
78839;BME280;68405;47.190;27.558;2023-05-19T07:26:11;100353.04;;;27.38;36.02
78839;BME280;68405;47.190;27.558;2023-05-19T07:28:43;100351.44;;;29.90;32.65
78839;BME280;68405;47.190;27.558;2023-05-19T07:31:15;100353.39;;;29.60;33.03
78839;BME280;68405;47.190;27.558;2023-05-19T07:33:47;100346.79;;;28.22;35.06
78839;BME280;68405;47.190;27.558;2023-05-19T07:36:19;100344.95;;;27.34;36.00
78839;BME280;68405;47.190;27.558;2023-05-19T07:38:51;100341.95;;;26.68;36.28
78839;BME280;68405;47.190;27.558;2023-05-19T07:41:23;100329.19;;;27.47;35.11
78839;BME280;68405;47.190;27.558;2023-05-19T07:43:55;100329.31;;;29.29;33.23
78839;BME280;68405;47.190;27.558;2023-05-19T07:46:27;100331.80;;;30.96;31.68
78839;BME280;68405;47.190;27.558;2023-05-19T07:48:59;100329.84;;;32.39;30.46
78839;BME280;68405;47.190;27.558;2023-05-19T07:51:31;100336.02;;;33.43;27.54
78839;BME280;68405;47.190;27.558;2023-05-19T07:54:02;100337.42;;;34.06;26.15
78839;BME280;68405;47.190;27.558;2023-05-19T07:56:34;100337.05;;;34.60;26.28
78839;BME280;68405;47.190;27.558;2023-05-19T07:59:06;100335.77;;;34.99;26.41
78839;BME280;68405;47.190;27.558;2023-05-19T08:01:38;100337.58;;;35.32;24.19
78839;BME280;68405;47.190;27.558;2023-05-19T08:04:11;100335.95;;;35.74;24.46
78839;BME280;68405;47.190;27.558;2023-05-19T08:06:43;100332.74;;;36.10;23.71
78839;BME280;68405;47.190;27.558;2023-05-19T08:09:15;100330.58;;;36.36;23.87
78839;BME280;68405;47.190;27.558;2023-05-19T08:11:47;100330.59;;;35.95;23.39
78839;BME280;68405;47.190;27.558;2023-05-19T08:14:19;100334.38;;;36.56;23.53
78839;BME280;68405;47.190;27.558;2023-05-19T08:16:51;100335.45;;;37.01;21.77
78839;BME280;68405;47.190;27.558;2023-05-19T08:19:23;100341.94;;;37.45;22.21
78839;BME280;68405;47.190;27.558;2023-05-19T08:21:56;100340.54;;;37.76;21.48
78839;BME280;68405;47.190;27.558;2023-05-19T08:24:30;100335.79;;;37.69;20.68
78839;BME280;68405;47.190;27.558;2023-05-19T08:27:03;100337.89;;;37.85;21.18
78839;BME280;68405;47.190;27.558;2023-05-19T08:29:34;100338.31;;;37.67;20.77
78839;BME280;68405;47.190;27.558;2023-05-19T08:32:08;100332.58;;;37.43;19.98
78839;BME280;68405;47.190;27.558;2023-05-19T08:34:40;100336.95;;;36.69;21.58
78839;BME280;68405;47.190;27.558;2023-05-19T08:37:12;100333.64;;;36.51;20.55
78839;BME280;68405;47.190;27.558;2023-05-19T08:39:44;100334.23;;;36.78;21.46
78839;BME280;68405;47.190;27.558;2023-05-19T08:42:16;100325.58;;;36.93;20.45
78839;BME280;68405;47.190;27.558;2023-05-19T08:44:48;100325.14;;;36.85;20.27
78839;BME280;68405;47.190;27.558;2023-05-19T08:47:20;100328.80;;;35.81;21.39
78839;BME280;68405;47.190;27.558;2023-05-19T08:49:54;100332.14;;;34.67;22.72
78839;BME280;68405;47.190;27.558;2023-05-19T08:52:37;100329.73;;;33.97;23.37
78839;BME280;68405;47.190;27.558;2023-05-19T08:55:24;100330.77;;;34.01;23.08
78839;BME280;68405;47.190;27.558;2023-05-19T08:58:00;100328.32;;;34.89;22.55
78839;BME280;68405;47.190;27.558;2023-05-19T09:00:34;100324.84;;;35.17;21.66
78839;BME280;68405;47.190;27.558;2023-05-19T09:03:06;100326.52;;;35.96;21.78
78839;BME280;68405;47.190;27.558;2023-05-19T09:05:39;100323.43;;;35.74;21.30
78839;BME280;68405;47.190;27.558;2023-05-19T09:08:10;100322.48;;;36.14;21.11
78839;BME280;68405;47.190;27.558;2023-05-19T09:10:42;100318.48;;;36.00;21.17
78839;BME280;68405;47.190;27.558;2023-05-19T09:13:14;100311.71;;;35.61;21.09
78839;BME280;68405;47.190;27.558;2023-05-19T09:15:46;100317.23;;;34.94;21.99
78839;BME280;68405;47.190;27.558;2023-05-19T09:18:19;100320.73;;;35.11;21.97
78839;BME280;68405;47.190;27.558;2023-05-19T09:20:54;100317.13;;;35.33;21.60
78839;BME280;68405;47.190;27.558;2023-05-19T09:23:31;100313.84;;;34.96;21.62
78839;BME280;68405;47.190;27.558;2023-05-19T09:26:04;100318.44;;;34.29;22.53
78839;BME280;68405;47.190;27.558;2023-05-19T09:28:37;100320.41;;;33.67;23.03
78839;BME280;68405;47.190;27.558;2023-05-19T09:31:09;100320.14;;;33.13;23.24
78839;BME280;68405;47.190;27.558;2023-05-19T09:33:42;100317.16;;;32.68;23.90
78839;BME280;68405;47.190;27.558;2023-05-19T09:36:14;100319.85;;;32.82;24.17
78839;BME280;68405;47.190;27.558;2023-05-19T09:38:46;100317.27;;;33.36;24.23
78839;BME280;68405;47.190;27.558;2023-05-19T09:41:18;100310.92;;;33.90;23.38
78839;BME280;68405;47.190;27.558;2023-05-19T09:43:56;100311.79;;;34.58;22.82
78839;BME280;68405;47.190;27.558;2023-05-19T09:46:29;100300.77;;;35.27;22.31
78839;BME280;68405;47.190;27.558;2023-05-19T09:49:09;100298.68;;;35.46;21.98
78839;BME280;68405;47.190;27.558;2023-05-19T09:51:43;100293.14;;;35.43;22.41
78839;BME280;68405;47.190;27.558;2023-05-19T09:54:17;100297.36;;;34.98;22.40
78839;BME280;68405;47.190;27.558;2023-05-19T09:56:57;100297.48;;;34.60;22.33
78839;BME280;68405;47.190;27.558;2023-05-19T09:59:30;100298.11;;;34.61;22.32
78839;BME280;68405;47.190;27.558;2023-05-19T10:02:02;100298.74;;;34.97;21.92
78839;BME280;68405;47.190;27.558;2023-05-19T10:04:34;100292.05;;;35.45;21.50
78839;BME280;68405;47.190;27.558;2023-05-19T10:07:06;100291.24;;;36.03;20.81
78839;BME280;68405;47.190;27.558;2023-05-19T10:09:42;100288.85;;;35.82;20.65
78839;BME280;68405;47.190;27.558;2023-05-19T10:12:14;100285.98;;;35.33;21.09
78839;BME280;68405;47.190;27.558;2023-05-19T10:14:46;100288.92;;;35.03;21.16
78839;BME280;68405;47.190;27.558;2023-05-19T10:17:18;100286.52;;;35.08;21.46
78839;BME280;68405;47.190;27.558;2023-05-19T10:19:51;100286.17;;;35.20;21.25
78839;BME280;68405;47.190;27.558;2023-05-19T10:22:24;100283.54;;;35.36;21.17
78839;BME280;68405;47.190;27.558;2023-05-19T10:24:58;100279.52;;;35.32;21.39
78839;BME280;68405;47.190;27.558;2023-05-19T10:27:30;100285.20;;;35.22;21.14
78839;BME280;68405;47.190;27.558;2023-05-19T10:30:09;100279.48;;;35.27;21.24
78839;BME280;68405;47.190;27.558;2023-05-19T10:32:43;100283.20;;;35.21;21.19
78839;BME280;68405;47.190;27.558;2023-05-19T10:38:31;100272.22;;;35.10;21.60
78839;BME280;68405;47.190;27.558;2023-05-19T10:41:09;100271.08;;;35.16;21.50
78839;BME280;68405;47.190;27.558;2023-05-19T10:43:51;100261.60;;;35.09;21.56
78839;BME280;68405;47.190;27.558;2023-05-19T10:46:26;100256.81;;;35.06;21.91
78839;BME280;68405;47.190;27.558;2023-05-19T10:49:00;100251.78;;;35.18;21.75
78839;BME280;68405;47.190;27.558;2023-05-19T10:51:32;100255.36;;;35.14;21.82
78839;BME280;68405;47.190;27.558;2023-05-19T10:54:09;100250.67;;;35.30;21.66
78839;BME280;68405;47.190;27.558;2023-05-19T10:56:43;100250.36;;;35.19;21.91
78839;BME280;68405;47.190;27.558;2023-05-19T10:59:33;100247.38;;;34.98;21.94
78839;BME280;68405;47.190;27.558;2023-05-19T11:02:07;100248.01;;;34.55;22.25
78839;BME280;68405;47.190;27.558;2023-05-19T11:04:46;100249.06;;;34.26;22.64
78839;BME280;68405;47.190;27.558;2023-05-19T11:07:20;100247.75;;;34.23;22.81
78839;BME280;68405;47.190;27.558;2023-05-19T11:09:54;100246.45;;;34.36;23.08
78839;BME280;68405;47.190;27.558;2023-05-19T11:12:26;100249.34;;;34.68;22.81
78839;BME280;68405;47.190;27.558;2023-05-19T11:14:58;100251.94;;;34.67;22.77
78839;BME280;68405;47.190;27.558;2023-05-19T11:17:30;100259.58;;;34.57;22.61
78839;BME280;68405;47.190;27.558;2023-05-19T11:20:02;100258.39;;;34.22;22.67
78839;BME280;68405;47.190;27.558;2023-05-19T11:22:40;100259.61;;;33.90;23.28
78839;BME280;68405;47.190;27.558;2023-05-19T11:25:12;100256.17;;;34.19;23.35
78839;BME280;68405;47.190;27.558;2023-05-19T11:27:48;100257.85;;;34.22;22.96
78839;BME280;68405;47.190;27.558;2023-05-19T11:30:21;100255.25;;;34.11;23.16
78839;BME280;68405;47.190;27.558;2023-05-19T11:32:54;100252.89;;;34.22;23.27
78839;BME280;68405;47.190;27.558;2023-05-19T11:35:27;100247.98;;;34.21;23.06
78839;BME280;68405;47.190;27.558;2023-05-19T11:37:59;100242.98;;;34.13;22.86
78839;BME280;68405;47.190;27.558;2023-05-19T11:40:30;100241.02;;;33.91;23.31
78839;BME280;68405;47.190;27.558;2023-05-19T11:43:02;100234.86;;;33.74;23.46
78839;BME280;68405;47.190;27.558;2023-05-19T11:45:35;100231.32;;;34.01;23.50
78839;BME280;68405;47.190;27.558;2023-05-19T11:48:11;100228.05;;;33.87;23.56
78839;BME280;68405;47.190;27.558;2023-05-19T11:50:45;100224.71;;;33.79;23.56
78839;BME280;68405;47.190;27.558;2023-05-19T11:53:18;100223.92;;;33.64;23.69
78839;BME280;68405;47.190;27.558;2023-05-19T11:55:50;100218.24;;;33.43;23.74
78839;BME280;68405;47.190;27.558;2023-05-19T11:58:25;100215.97;;;33.35;24.55
78839;BME280;68405;47.190;27.558;2023-05-19T12:01:02;100211.65;;;33.20;24.53
78839;BME280;68405;47.190;27.558;2023-05-19T12:03:34;100204.41;;;32.96;24.74
78839;BME280;68405;47.190;27.558;2023-05-19T12:06:07;100205.42;;;32.86;24.84
78839;BME280;68405;47.190;27.558;2023-05-19T12:08:38;100197.50;;;32.73;24.71
78839;BME280;68405;47.190;27.558;2023-05-19T12:11:11;100192.00;;;32.68;24.84
78839;BME280;68405;47.190;27.558;2023-05-19T12:13:43;100191.67;;;32.62;25.10
78839;BME280;68405;47.190;27.558;2023-05-19T12:16:15;100188.86;;;32.51;25.19
78839;BME280;68405;47.190;27.558;2023-05-19T12:18:50;100184.02;;;32.49;25.37
78839;BME280;68405;47.190;27.558;2023-05-19T12:21:22;100172.00;;;32.50;25.38
78839;BME280;68405;47.190;27.558;2023-05-19T12:23:54;100168.02;;;32.42;25.84
78839;BME280;68405;47.190;27.558;2023-05-19T12:26:26;100171.86;;;32.31;25.99
78839;BME280;68405;47.190;27.558;2023-05-19T12:28:59;100172.59;;;32.20;25.49
78839;BME280;68405;47.190;27.558;2023-05-19T12:31:31;100169.23;;;32.06;25.91
78839;BME280;68405;47.190;27.558;2023-05-19T12:34:03;100168.25;;;32.07;25.93
78839;BME280;68405;47.190;27.558;2023-05-19T12:36:35;100164.39;;;32.03;26.09
78839;BME280;68405;47.190;27.558;2023-05-19T12:39:07;100164.08;;;31.86;26.43
78839;BME280;68405;47.190;27.558;2023-05-19T12:41:42;100161.76;;;31.80;26.43
78839;BME280;68405;47.190;27.558;2023-05-19T12:44:17;100151.52;;;32.01;26.35
78839;BME280;68405;47.190;27.558;2023-05-19T12:46:53;100147.39;;;32.15;26.29
78839;BME280;68405;47.190;27.558;2023-05-19T12:49:27;100139.98;;;32.08;26.32
78839;BME280;68405;47.190;27.558;2023-05-19T12:52:01;100138.61;;;32.14;26.21
78839;BME280;68405;47.190;27.558;2023-05-19T12:54:35;100134.71;;;32.26;26.30
78839;BME280;68405;47.190;27.558;2023-05-19T12:57:09;100139.16;;;32.20;26.41
78839;BME280;68405;47.190;27.558;2023-05-19T12:59:43;100145.76;;;32.19;26.39
78839;BME280;68405;47.190;27.558;2023-05-19T13:02:15;100153.02;;;31.99;26.57
78839;BME280;68405;47.190;27.558;2023-05-19T13:04:47;100164.19;;;31.46;27.27
78839;BME280;68405;47.190;27.558;2023-05-19T13:07:20;100171.95;;;30.90;27.75
78839;BME280;68405;47.190;27.558;2023-05-19T13:09:52;100179.04;;;30.49;28.01
78839;BME280;68405;47.190;27.558;2023-05-19T13:12:24;100174.40;;;30.02;28.70
78839;BME280;68405;47.190;27.558;2023-05-19T13:14:56;100175.88;;;29.48;28.94